Time;durP1;ratioP1;P1;durP2;ratioP2;P2;SDS_P1;SDS_P2;PMS_P1;PMS_P2;Temp;Humidity;BMP_temperature;BMP_pressure;BME280_temperature;BME280_humidity;BME280_pressure;Samples;Min_cycle;Max_cycle;Signal;HPM_P1;HPM_P2
2022/03/24 00:01:57;;;;;;;36.30;15.80;;;;;;;4.35;41.72;99308.90;105761;1280;24240;-73
2022/03/24 00:04:38;;;;;;;34.50;15.80;;;;;;;4.48;41.79;99309.09;105868;1279;137381;-73
2022/03/24 00:07:19;;;;;;;29.70;14.40;;;;;;;4.56;41.60;99303.27;105566;1279;25247;-73
2022/03/24 00:09:45;;;;;;;33.70;14.80;;;;;;;4.63;41.20;99297.40;105621;1278;137663;-73
2022/03/24 00:12:27;;;;;;;28.50;13.70;;;;;;;4.70;40.67;99295.08;105860;1279;22742;-73
2022/03/24 00:14:54;;;;;;;32.20;14.70;;;;;;;4.74;40.49;99290.79;105638;1279;22560;-73
2022/03/24 00:17:35;;;;;;;33.50;15.60;;;;;;;4.82;40.38;99289.33;105784;1278;137546;-73
2022/03/24 00:20:17;;;;;;;33.40;15.00;;;;;;;4.86;40.20;99286.95;105466;1279;25411;-73
2022/03/24 00:22:44;;;;;;;32.30;15.50;;;;;;;4.87;40.11;99284.77;105445;1277;137313;-73
2022/03/24 00:25:11;;;;;;;29.00;14.20;;;;;;;4.84;39.69;99285.41;105648;1278;25259;-73
2022/03/24 00:27:52;;;;;;;34.70;16.00;;;;;;;4.85;39.70;99286.41;105721;1279;137450;-73
2022/03/24 00:30:33;;;;;;;32.90;15.90;;;;;;;4.89;40.01;99284.88;105972;1279;25481;-73
2022/03/24 00:33:14;;;;;;;31.80;16.00;;;;;;;4.91;40.11;99280.50;105699;1280;137550;-73
2022/03/24 00:35:41;;;;;;;33.00;17.70;;;;;;;4.91;40.35;99282.63;105848;1277;22667;-73
2022/03/24 00:38:08;;;;;;;34.60;16.70;;;;;;;4.88;40.33;99282.05;105805;1280;22620;-73
2022/03/24 00:40:35;;;;;;;31.40;15.70;;;;;;;4.85;40.56;99285.66;105721;1280;137425;-73
2022/03/24 00:43:17;;;;;;;33.10;13.80;;;;;;;4.82;40.93;99283.41;105982;1280;24240;-73
2022/03/24 00:45:59;;;;;;;29.20;13.60;;;;;;;4.83;41.04;99281.10;105502;1278;137384;-73
2022/03/24 00:48:26;;;;;;;30.90;13.50;;;;;;;4.88;41.28;99279.09;105900;1279;22565;-73
2022/03/24 00:50:53;;;;;;;30.40;15.50;;;;;;;4.95;41.41;99278.89;105767;1279;22652;-73
2022/03/24 00:53:20;;;;;;;41.50;18.90;;;;;;;4.99;41.55;99277.33;105713;1279;137320;-73
2022/03/24 00:55:47;;;;;;;54.50;24.20;;;;;;;4.92;42.36;99279.85;105715;1280;22577;-73
2022/03/24 00:58:29;;;;;;;38.30;18.70;;;;;;;4.77;42.59;99282.19;105677;1278;137769;-73
2022/03/24 01:01:12;;;;;;;37.20;17.10;;;;;;;4.63;42.24;99282.21;105968;1280;24305;-73
2022/03/24 01:03:40;;;;;;;40.20;17.30;;;;;;;4.54;42.53;99287.03;105753;1278;137620;-73
2022/03/24 01:06:08;;;;;;;39.20;17.90;;;;;;;4.46;42.92;99284.27;105826;1279;25254;-73
2022/03/24 01:08:50;;;;;;;34.00;17.60;;;;;;;4.37;43.37;99282.08;105652;1279;22734;-73
2022/03/24 01:11:32;;;;;;;30.90;16.30;;;;;;;4.30;43.61;99277.01;105401;1279;137112;-73
2022/03/24 01:14:16;;;;;;;38.30;16.50;;;;;;;4.25;43.90;99274.02;105825;1279;22540;-73
2022/03/24 01:16:57;;;;;;;32.20;15.50;;;;;;;4.20;44.36;99269.42;105632;1279;137295;-73
2022/03/24 01:19:24;;;;;;;36.50;15.80;;;;;;;4.16;44.41;99266.08;105491;1279;25371;-73
2022/03/24 01:22:05;;;;;;;32.60;15.20;;;;;;;4.12;44.46;99266.77;105536;1279;137651;-73
2022/03/24 01:24:47;;;;;;;45.10;17.90;;;;;;;4.04;45.16;99260.68;105562;1279;25383;-73
2022/03/24 01:27:14;;;;;;;49.60;21.00;;;;;;;3.99;45.26;99260.77;105961;1278;138056;-73
2022/03/24 01:29:42;;;;;;;44.20;18.80;;;;;;;3.92;45.04;99261.96;105859;1277;22544;-73
2022/03/24 01:32:25;;;;;;;39.50;17.80;;;;;;;3.85;45.28;99264.96;105450;1280;22778;-73
2022/03/24 01:35:07;;;;;;;43.60;19.30;;;;;;;3.78;45.41;99260.02;105665;1280;137561;-73
2022/03/24 01:37:48;;;;;;;44.30;20.60;;;;;;;3.74;45.71;99260.50;105661;1278;28897;-73
2022/03/24 01:40:30;;;;;;;46.00;20.40;;;;;;;3.69;45.73;99259.98;105456;1279;137540;-73
2022/03/24 01:43:11;;;;;;;46.90;21.60;;;;;;;3.65;45.79;99257.08;105492;1279;24357;-73
2022/03/24 01:45:38;;;;;;;42.60;20.70;;;;;;;3.60;45.93;99256.41;105433;1278;137690;-73
2022/03/24 01:48:10;;;;;;;41.30;19.10;;;;;;;3.55;46.15;99257.12;105496;1278;22538;-73
2022/03/24 01:50:39;;;;;;;37.40;17.70;;;;;;;3.51;46.22;99261.69;105768;1278;22544;-73
2022/03/24 01:53:21;;;;;;;42.70;19.40;;;;;;;3.52;46.51;99259.83;105498;1278;137606;-73
2022/03/24 01:55:50;;;;;;;44.70;18.00;;;;;;;3.52;46.61;99266.84;105770;1280;25850;-73
2022/03/24 01:58:18;;;;;;;39.70;19.20;;;;;;;3.51;46.80;99269.60;105683;1280;137524;-73
2022/03/24 02:00:45;;;;;;;49.10;20.60;;;;;;;3.50;46.75;99269.74;105856;1279;22528;-73
2022/03/24 02:03:14;;;;;;;46.40;20.90;;;;;;;3.49;46.81;99267.20;105982;1278;25243;-73
2022/03/24 02:05:42;;;;;;;49.10;22.00;;;;;;;3.47;46.61;99267.92;105916;1280;137233;-73
2022/03/24 02:08:10;;;;;;;42.40;19.60;;;;;;;3.47;46.83;99266.20;105836;1278;22561;-73
2022/03/24 02:10:51;;;;;;;37.80;19.00;;;;;;;3.47;46.80;99266.21;105822;1278;137366;-73
2022/03/24 02:13:33;;;;;;;37.80;18.10;;;;;;;3.46;46.69;99265.91;105875;1278;25246;-73
2022/03/24 02:16:01;;;;;;;37.50;19.70;;;;;;;3.46;46.91;99265.54;105690;1278;138485;-73
2022/03/24 02:18:44;;;;;;;47.40;22.40;;;;;;;3.42;48.01;99271.19;105858;1278;32068;-73
2022/03/24 02:21:26;;;;;;;50.50;21.90;;;;;;;3.30;48.31;99273.71;105732;1279;137702;-73
2022/03/24 02:24:12;;;;;;;51.90;22.30;;;;;;;3.19;48.14;99277.33;105631;1281;25383;-73
2022/03/24 02:26:54;;;;;;;46.80;21.70;;;;;;;3.09;48.67;99276.52;105525;1279;25425;-73
2022/03/24 02:29:25;;;;;;;42.60;19.80;;;;;;;3.02;48.67;99283.40;105363;1278;137955;-73
2022/03/24 02:32:08;;;;;;;44.80;19.80;;;;;;;2.95;48.80;99276.80;105518;1279;24305;-73
2022/03/24 02:34:51;;;;;;;40.50;19.10;;;;;;;2.89;49.14;99282.15;105415;1278;137388;-73
2022/03/24 02:37:22;;;;;;;38.00;17.80;;;;;;;2.84;49.01;99284.15;105608;1280;25246;-73
2022/03/24 02:39:51;;;;;;;40.60;19.50;;;;;;;2.81;49.36;99282.72;105881;1277;137663;-73
2022/03/24 02:42:22;;;;;;;49.00;21.30;;;;;;;2.76;49.93;99288.78;105751;1278;25254;-73
2022/03/24 02:44:51;;;;;;;47.30;21.40;;;;;;;2.70;49.99;99289.86;105337;1281;25330;-73
2022/03/24 02:47:18;;;;;;;;;;;;;;;2.66;50.10;99293.79;105618;1277;137350;-73
2022/03/24 02:49:48;;;;;;;39.00;17.20;;;;;;;2.60;50.16;99294.43;105620;1278;22827;-73
2022/03/24 02:52:29;;;;;;;41.90;18.10;;;;;;;2.55;50.23;99295.11;105710;1281;137313;-73
2022/03/24 02:55:10;;;;;;;39.70;19.10;;;;;;;2.51;50.44;99295.80;105793;1281;22544;-72
2022/03/24 02:57:37;;;;;;;39.10;17.20;;;;;;;2.50;50.32;99300.23;105671;1279;137425;-73
2022/03/24 03:00:18;;;;;;;36.10;17.00;;;;;;;2.48;50.35;99302.39;105835;1280;25440;-73
2022/03/24 03:02:59;;;;;;;39.50;18.50;;;;;;;2.47;50.16;99304.61;105798;1280;23970;-73
2022/03/24 03:05:40;;;;;;;36.70;17.80;;;;;;;2.49;50.28;99308.78;105666;1278;137797;-72
2022/03/24 03:08:21;;;;;;;36.20;16.90;;;;;;;2.50;50.11;99307.53;105799;1278;22541;-73
2022/03/24 03:11:02;;;;;;;38.10;16.80;;;;;;;2.51;50.03;99312.60;105664;1281;137207;-73
2022/03/24 03:13:43;;;;;;;43.00;20.20;;;;;;;2.54;49.99;99313.77;105781;1281;24295;-73
2022/03/24 03:16:25;;;;;;;42.00;19.10;;;;;;;2.55;49.96;99315.61;105729;1281;137406;-73
2022/03/24 03:19:08;;;;;;;41.10;18.60;;;;;;;2.57;50.24;99316.11;105893;1278;25387;-73
2022/03/24 03:21:50;;;;;;;42.30;19.20;;;;;;;2.57;50.30;99314.81;105639;1281;137460;-72
2022/03/24 03:24:31;;;;;;;41.00;20.40;;;;;;;2.57;50.42;99317.66;105710;1278;25461;-73
2022/03/24 03:27:14;;;;;;;38.30;18.90;;;;;;;2.58;50.34;99322.09;105827;1278;25449;-73
2022/03/24 03:29:42;;;;;;;41.70;19.50;;;;;;;2.58;50.52;99318.46;105848;1278;137621;-73
2022/03/24 03:32:24;;;;;;;35.70;18.20;;;;;;;2.57;50.52;99321.77;105737;1281;22718;-73
2022/03/24 03:35:06;;;;;;;39.80;19.10;;;;;;;2.58;50.41;99325.61;105671;1281;139907;-73
2022/03/24 03:37:34;;;;;;;41.40;18.70;;;;;;;2.58;50.34;99325.99;105858;1280;24301;-72
2022/03/24 03:40:01;;;;;;;42.90;18.60;;;;;;;2.58;50.45;99324.91;105597;1281;138298;-72
2022/03/24 03:42:41;;;;;;;43.10;19.00;;;;;;;2.58;50.56;99329.52;105859;1280;24238;-73
2022/03/24 03:45:22;;;;;;;39.40;18.60;;;;;;;2.58;50.89;99330.05;105657;1278;137361;-72
2022/03/24 03:47:49;;;;;;;41.60;19.60;;;;;;;2.57;50.89;99328.42;105812;1281;22668;-72
2022/03/24 03:50:30;;;;;;;45.30;20.30;;;;;;;2.56;50.87;99333.73;105801;1278;25257;-72
2022/03/24 03:52:57;;;;;;;40.40;19.40;;;;;;;2.54;50.93;99328.80;105710;1278;137267;-72
2022/03/24 03:55:38;;;;;;;43.00;20.50;;;;;;;2.51;50.71;99330.89;105704;1281;22651;-74
2022/03/24 03:58:19;;;;;;;41.50;20.50;;;;;;;2.49;50.90;99334.31;105614;1281;137312;-74
2022/03/24 04:00:52;;;;;;;48.30;19.90;;;;;;;2.47;50.74;99331.66;105892;1280;22560;-76
2022/03/24 04:03:20;;;;;;;40.90;19.20;;;;;;;2.46;50.95;99334.52;106042;1278;137518;-74
2022/03/24 04:06:04;;;;;;;42.40;19.80;;;;;;;2.46;50.85;99339.10;105866;1277;22538;-73
2022/03/24 04:08:33;;;;;;;40.30;19.00;;;;;;;2.47;50.90;99337.45;105939;1277;25319;-74
2022/03/24 04:11:14;;;;;;;38.80;18.00;;;;;;;2.49;50.95;99345.17;105681;1278;137512;-76
2022/03/24 04:13:55;;;;;;;43.40;19.80;;;;;;;2.50;51.19;99345.73;105783;1278;22554;-74
2022/03/24 04:16:36;;;;;;;41.60;18.80;;;;;;;2.51;51.18;99349.70;105634;1277;137353;-73
2022/03/24 04:19:05;;;;;;;39.40;19.10;;;;;;;2.53;51.12;99355.61;105748;1280;25534;-73
2022/03/24 04:21:46;;;;;;;41.00;19.20;;;;;;;2.54;51.15;99357.95;105724;1278;137720;-76
2022/03/24 04:24:13;;;;;;;42.40;19.80;;;;;;;2.56;51.04;99355.67;105726;1277;24210;-74
2022/03/24 04:26:40;;;;;;;38.70;18.40;;;;;;;2.56;50.92;99360.95;105715;1278;25259;-73
2022/03/24 04:29:21;;;;;;;38.40;18.80;;;;;;;2.58;50.90;99361.80;105757;1277;137301;-74
2022/03/24 04:31:49;;;;;;;37.80;18.20;;;;;;;2.60;51.00;99365.42;105729;1281;24438;-72
2022/03/24 04:34:30;;;;;;;45.60;19.90;;;;;;;2.60;51.08;99370.93;105565;1283;137384;-73
2022/03/24 04:37:11;;;;;;;40.20;19.20;;;;;;;2.59;51.26;99376.10;105730;1281;26505;-72
2022/03/24 04:39:52;;;;;;;45.50;22.10;;;;;;;2.56;51.31;99376.55;105751;1278;138796;-72
2022/03/24 04:42:34;;;;;;;42.30;19.40;;;;;;;2.53;51.49;99377.26;105678;1280;24387;-73
2022/03/24 04:45:15;;;;;;;44.70;20.00;;;;;;;2.51;51.72;99379.77;105807;1280;24373;-72
2022/03/24 04:47:55;;;;;;;44.70;21.60;;;;;;;2.49;51.65;99379.84;105757;1278;137485;-72
2022/03/24 04:50:36;;;;;;;40.50;20.10;;;;;;;2.49;51.84;99382.23;105858;1277;22903;-74
2022/03/24 04:53:18;;;;;;;46.50;21.30;;;;;;;2.48;51.77;99379.59;105740;1281;137727;-73
2022/03/24 04:55:59;;;;;;;43.10;20.20;;;;;;;2.49;51.78;99375.61;105933;1278;22544;-73
2022/03/24 04:58:40;;;;;;;46.70;19.30;;;;;;;2.51;51.91;99378.45;105615;1278;137854;-73
2022/03/24 05:01:21;;;;;;;38.50;18.80;;;;;;;2.53;51.84;99384.48;105994;1278;25245;-72
2022/03/24 05:03:48;;;;;;;42.20;19.60;;;;;;;2.54;51.98;99386.29;105627;1278;137669;-72
2022/03/24 05:06:29;;;;;;;55.40;22.80;;;;;;;2.57;51.98;99390.26;105906;1281;25383;-73
2022/03/24 05:09:12;;;;;;;41.80;20.80;;;;;;;2.60;52.11;99391.40;105887;1277;24478;-72
2022/03/24 05:11:39;;;;;;;44.70;19.70;;;;;;;2.62;52.25;99394.15;105933;1277;137344;-73
2022/03/24 05:14:20;;;;;;;43.30;20.30;;;;;;;2.64;52.35;99398.63;105814;1279;23708;-73
2022/03/24 05:17:01;;;;;;;44.40;20.60;;;;;;;2.66;52.46;99397.88;105647;1279;137230;-72
2022/03/24 05:19:28;;;;;;;42.80;19.70;;;;;;;2.67;52.44;99402.41;105968;1278;24429;-72
2022/03/24 05:21:55;;;;;;;45.60;20.30;;;;;;;2.68;52.58;99400.73;105626;1279;137933;-72
2022/03/24 05:24:38;;;;;;;83.40;23.80;;;;;;;2.69;52.55;99399.88;105771;1280;25446;-72
2022/03/24 05:27:18;;;;;;;49.60;21.00;;;;;;;2.71;52.39;99400.80;105824;1281;24339;-72
2022/03/24 05:29:45;;;;;;;44.90;22.60;;;;;;;2.75;52.38;99401.23;105686;1279;137420;-73
2022/03/24 05:32:27;;;;;;;49.10;20.20;;;;;;;2.79;52.74;99403.20;105830;1281;22543;-73
2022/03/24 05:34:54;;;;;;;53.60;19.70;;;;;;;2.83;53.05;99405.77;105649;1279;137757;-73
2022/03/24 05:37:36;;;;;;;49.70;21.40;;;;;;;2.88;53.31;99407.84;105732;1281;25326;-73
2022/03/24 05:40:04;;;;;;;44.70;20.30;;;;;;;2.93;53.03;99407.60;105832;1279;137670;-73
2022/03/24 05:42:31;;;;;;;47.90;20.00;;;;;;;2.96;52.82;99408.37;105974;1278;22563;-73
2022/03/24 05:45:12;;;;;;;42.90;19.10;;;;;;;3.01;53.00;99414.57;105918;1278;22548;-73
2022/03/24 05:47:53;;;;;;;46.00;21.60;;;;;;;3.08;53.55;99416.00;105848;1277;137505;-73
2022/03/24 05:50:29;;;;;;;53.40;21.80;;;;;;;3.14;53.58;99417.83;105871;1278;22603;-73
2022/03/24 05:53:21;;;;;;;42.50;19.20;;;;;;;3.21;53.44;99419.89;105888;1279;137275;-73
2022/03/24 05:55:48;;;;;;;45.40;21.10;;;;;;;3.28;53.66;99427.71;105811;1279;25209;-72
2022/03/24 05:58:29;;;;;;;53.90;23.30;;;;;;;3.37;53.47;99423.61;105710;1279;137269;-73
2022/03/24 06:01:10;;;;;;;51.80;21.40;;;;;;;3.45;53.38;99426.49;105786;1280;22563;-73
2022/03/24 06:03:52;;;;;;;48.50;22.00;;;;;;;3.52;53.65;99427.92;105580;1278;137614;-72
2022/03/24 06:06:34;;;;;;;49.70;20.60;;;;;;;3.59;53.41;99424.17;105751;1278;23949;-73
2022/03/24 06:09:06;;;;;;;50.60;19.70;;;;;;;3.65;53.51;99426.55;105596;1277;24266;-73
2022/03/24 06:11:47;;;;;;;42.70;19.90;;;;;;;3.74;53.21;99424.09;106218;1277;137559;-73
2022/03/24 06:14:15;;;;;;;50.20;20.70;;;;;;;3.83;53.40;99417.66;105998;1280;24388;-73
2022/03/24 06:16:56;;;;;;;49.90;23.50;;;;;;;3.93;53.18;99420.59;106018;1279;137991;-73
2022/03/24 06:19:23;;;;;;;46.50;22.40;;;;;;;4.04;52.86;99423.17;105956;1279;22543;-73
2022/03/24 06:21:50;;;;;;;48.90;22.30;;;;;;;4.15;52.96;99426.77;106112;1279;137646;-73
2022/03/24 06:24:31;;;;;;;45.40;20.40;;;;;;;4.25;52.64;99428.20;106005;1278;24218;-73
2022/03/24 06:26:59;;;;;;;47.60;21.70;;;;;;;4.35;52.22;99428.13;105947;1277;22553;-73
2022/03/24 06:29:26;;;;;;;54.90;22.90;;;;;;;4.45;52.13;99428.39;106419;1277;137439;-73
2022/03/24 06:31:53;;;;;;;45.70;22.30;;;;;;;4.54;51.99;99433.27;106399;1277;25250;-73
2022/03/24 06:34:34;;;;;;;50.00;23.30;;;;;;;4.63;51.85;99433.70;105950;1279;137493;-73
2022/03/24 06:37:15;;;;;;;44.50;21.80;;;;;;;4.71;51.28;99437.33;106213;1278;24310;-73
2022/03/24 06:39:42;;;;;;;49.30;22.50;;;;;;;4.79;51.53;99440.27;105963;1279;137568;-73
2022/03/24 06:42:10;;;;;;;48.90;22.80;;;;;;;4.86;50.96;99437.88;105780;1279;24086;-73
2022/03/24 06:44:36;;;;;;;38.40;20.90;;;;;;;4.94;50.84;99437.89;105909;1278;22691;-73
2022/03/24 06:47:17;;;;;;;49.00;22.90;;;;;;;5.04;51.00;99434.91;105719;1277;137466;-73
2022/03/24 06:49:58;;;;;;;51.50;22.80;;;;;;;5.12;51.12;99434.12;105723;1280;22560;-73
2022/03/24 06:52:41;;;;;;;46.20;22.70;;;;;;;5.20;50.81;99437.17;105616;1280;137597;-73
2022/03/24 06:55:22;;;;;;;43.30;22.00;;;;;;;5.26;50.48;99440.47;105645;1281;25709;-73
2022/03/24 06:58:03;;;;;;;51.70;24.10;;;;;;;5.33;50.51;99442.36;105590;1280;138332;-72
2022/03/24 07:00:30;;;;;;;43.40;22.00;;;;;;;5.40;50.38;99443.12;105835;1279;22659;-73
2022/03/24 07:03:11;;;;;;;53.60;25.40;;;;;;;5.46;49.65;99443.61;105692;1280;23374;-73
2022/03/24 07:05:38;;;;;;;46.30;24.10;;;;;;;5.54;49.52;99444.55;105980;1280;137938;-73
2022/03/24 07:08:07;;;;;;;54.40;22.80;;;;;;;5.60;49.39;99451.52;105812;1279;22569;-73
2022/03/24 07:10:34;;;;;;;44.90;22.70;;;;;;;5.66;48.94;99455.22;105649;1280;137538;-73
2022/03/24 07:13:16;;;;;;;48.80;24.30;;;;;;;5.74;48.66;99455.22;105792;1280;23418;-73
2022/03/24 07:15:42;;;;;;;50.00;23.40;;;;;;;5.80;48.67;99455.96;105760;1280;137891;-73
2022/03/24 07:18:10;;;;;;;45.90;23.10;;;;;;;5.87;49.03;99454.64;105964;1280;22539;-73
2022/03/24 07:20:37;;;;;;;53.10;25.40;;;;;;;5.94;48.49;99453.98;105547;1279;23200;-73
2022/03/24 07:23:20;;;;;;;44.80;23.10;;;;;;;6.01;48.45;99452.38;105642;1280;137883;-73
2022/03/24 07:25:47;;;;;;;47.10;24.00;;;;;;;6.09;48.35;99452.91;105874;1279;22738;-72
2022/03/24 07:28:28;;;;;;;39.00;20.20;;;;;;;6.16;48.04;99453.62;105466;1280;137624;-73
2022/03/24 07:31:11;;;;;;;42.60;22.00;;;;;;;6.24;47.73;99457.27;105481;1281;22614;-73
2022/03/24 07:33:53;;;;;;;46.50;24.70;;;;;;;6.34;47.78;99457.96;105542;1281;138692;-73
2022/03/24 07:36:23;;;;;;;42.40;21.70;;;;;;;6.42;47.68;99461.98;105400;1280;24012;-73
2022/03/24 07:39:05;;;;;;;46.50;23.90;;;;;;;6.50;47.04;99461.32;105574;1280;26576;-73
2022/03/24 07:41:46;;;;;;;43.10;21.70;;;;;;;6.59;46.95;99459.66;105433;1280;137615;-73
2022/03/24 07:44:27;;;;;;;46.80;22.40;;;;;;;6.68;46.11;99457.95;105787;1280;23657;-73
2022/03/24 07:46:54;;;;;;;38.80;21.80;;;;;;;6.77;45.80;99455.42;105502;1279;137985;-73
2022/03/24 07:49:22;;;;;;;38.40;20.60;;;;;;;6.85;45.88;99457.45;105910;1280;25267;-73
2022/03/24 07:52:11;;;;;;;41.30;19.40;;;;;;;6.95;45.52;99460.08;105914;1277;137687;-73
2022/03/24 07:55:01;;;;;;;39.80;21.20;;;;;;;7.05;45.20;99455.98;106083;1277;24308;-73
2022/03/24 07:57:33;;;;;;;41.10;21.50;;;;;;;7.14;45.07;99452.80;105916;1280;25430;-73
2022/03/24 08:00:14;;;;;;;37.10;21.50;;;;;;;7.25;45.03;99454.50;105691;1279;137490;-73
2022/03/24 08:02:55;;;;;;;38.00;18.70;;;;;;;7.35;44.07;99452.73;105913;1279;22702;-73
2022/03/24 08:05:22;;;;;;;37.40;19.50;;;;;;;7.46;43.86;99453.99;106201;1279;137566;-73
2022/03/24 08:08:07;;;;;;;35.20;18.40;;;;;;;7.55;43.70;99456.59;106086;1278;25484;-72
2022/03/24 08:10:34;;;;;;;34.60;18.40;;;;;;;7.63;42.79;99455.95;105760;1278;137622;-72
2022/03/24 08:13:17;;;;;;;36.00;19.00;;;;;;;7.75;42.50;99460.22;105978;1278;22571;-72
2022/03/24 08:15:45;;;;;;;34.00;17.70;;;;;;;7.84;41.75;99459.14;106067;1278;23445;-72
2022/03/24 08:18:26;;;;;;;30.90;16.30;;;;;;;7.93;41.78;99458.46;105753;1278;137731;-73
2022/03/24 08:20:53;;;;;;;26.80;15.60;;;;;;;8.03;41.48;99463.84;105660;1278;22538;-72
2022/03/24 08:23:33;;;;;;;31.10;16.60;;;;;;;8.14;40.73;99457.44;105741;1278;137645;-72
2022/03/24 08:26:14;;;;;;;30.90;16.80;;;;;;;8.28;41.00;99459.81;105855;1279;25379;-74
2022/03/24 08:28:41;;;;;;;29.90;15.40;;;;;;;8.39;40.71;99461.56;105759;1281;137702;-72
2022/03/24 08:31:09;;;;;;;29.10;14.10;;;;;;;8.51;39.65;99464.69;105930;1278;25259;-72
2022/03/24 08:33:36;;;;;;;25.00;13.70;;;;;;;8.62;39.31;99463.23;105827;1279;25598;-72
2022/03/24 08:36:17;;;;;;;27.00;14.10;;;;;;;8.74;38.18;99465.00;106076;1278;138271;-72
2022/03/24 08:38:59;;;;;;;27.80;13.90;;;;;;;8.83;37.70;99462.38;106001;1279;22556;-72
2022/03/24 08:41:27;;;;;;;24.90;12.80;;;;;;;8.93;37.88;99463.58;105847;1278;137739;-72
2022/03/24 08:43:54;;;;;;;24.90;13.30;;;;;;;9.02;37.60;99461.95;106153;1279;22553;-72
2022/03/24 08:46:24;;;;;;;26.80;13.60;;;;;;;9.12;37.75;99461.30;105955;1277;138619;-72
2022/03/24 08:48:53;;;;;;;25.40;14.30;;;;;;;9.21;37.52;99461.63;105869;1279;22576;-72
2022/03/24 08:51:22;;;;;;;31.30;14.30;;;;;;;9.30;37.41;99458.83;105813;1279;24211;-72
2022/03/24 08:54:05;;;;;;;27.10;15.50;;;;;;;9.41;37.57;99459.68;105811;1279;137693;-72
2022/03/24 08:56:46;;;;;;;24.90;14.80;;;;;;;9.52;37.22;99464.38;106029;1277;25240;-72
2022/03/24 08:59:13;;;;;;;33.70;15.80;;;;;;;9.59;36.66;99463.48;105773;1280;138531;-72
2022/03/24 09:01:43;;;;;;;30.40;16.60;;;;;;;9.65;36.58;99463.27;106264;1278;22710;-72
2022/03/24 09:04:10;;;;;;;;;;;;;;;9.72;36.91;99464.86;105902;1278;137902;-73
2022/03/24 09:06:38;;;;;;;29.70;15.60;;;;;;;9.80;36.68;99462.41;106018;1277;22547;-73
2022/03/24 09:09:22;;;;;;;33.10;16.20;;;;;;;9.89;36.71;99460.23;105891;1278;26599;-73
2022/03/24 09:12:04;;;;;;;23.20;12.80;;;;;;;10.04;36.43;99463.30;105773;1277;137908;-73
2022/03/24 09:14:32;;;;;;;23.40;11.40;;;;;;;10.16;35.28;99461.37;106164;1277;25505;-73
2022/03/24 09:16:59;;;;;;;26.30;13.20;;;;;;;10.27;33.45;99464.16;106122;1277;137980;-73
2022/03/24 09:19:25;;;;;;;24.80;14.40;;;;;;;10.35;33.02;99465.02;105769;1277;24276;-73
2022/03/24 09:21:53;;;;;;;25.30;14.10;;;;;;;10.44;33.39;99463.52;105737;1277;22622;-73
2022/03/24 09:24:20;;;;;;;28.60;14.20;;;;;;;10.50;33.38;99461.98;106195;1279;138027;-73
2022/03/24 09:26:47;;;;;;;23.40;13.30;;;;;;;10.57;33.27;99461.94;105877;1279;24083;-73
2022/03/24 09:29:14;;;;;;;24.50;13.60;;;;;;;10.65;33.15;99463.09;105571;1279;138259;-73
2022/03/24 09:31:41;;;;;;;26.60;14.10;;;;;;;10.75;33.23;99461.30;105651;1279;22570;-73
2022/03/24 09:34:22;;;;;;;23.70;12.50;;;;;;;10.86;33.15;99459.08;105655;1280;137965;-73
2022/03/24 09:37:03;;;;;;;29.70;15.30;;;;;;;10.97;33.40;99455.46;105589;1277;22546;-73
2022/03/24 09:39:30;;;;;;;27.50;15.70;;;;;;;11.10;33.97;99460.89;105679;1278;25238;-73
2022/03/24 09:42:12;;;;;;;27.20;15.60;;;;;;;11.23;34.06;99465.67;105625;1278;138019;-73
2022/03/24 09:44:45;;;;;;;33.30;16.70;;;;;;;11.34;33.39;99459.64;106170;1277;22545;-73
2022/03/24 09:47:13;;;;;;;30.40;16.00;;;;;;;11.47;33.70;99459.23;105904;1278;138973;-73
2022/03/24 09:49:41;;;;;;;27.60;16.40;;;;;;;11.61;33.44;99457.77;105979;1277;24227;-73
2022/03/24 09:52:11;;;;;;;30.90;15.90;;;;;;;11.69;32.65;99458.34;105691;1278;138376;-73
2022/03/24 09:54:42;;;;;;;32.20;17.80;;;;;;;11.71;32.23;99458.07;106050;1279;22574;-73
2022/03/24 09:57:23;;;;;;;33.40;16.50;;;;;;;11.74;32.21;99457.50;105897;1280;22810;-73
2022/03/24 09:59:51;;;;;;;33.80;16.10;;;;;;;11.81;32.94;99458.25;105788;1280;137888;-73
2022/03/24 10:02:32;;;;;;;28.10;16.60;;;;;;;11.90;32.37;99452.75;105802;1281;25376;-73
2022/03/24 10:05:01;;;;;;;26.80;15.60;;;;;;;11.98;32.36;99451.18;105821;1279;138099;-73
2022/03/24 10:07:51;;;;;;;28.90;15.40;;;;;;;12.09;32.06;99451.21;106031;1278;23883;-73
2022/03/24 10:10:27;;;;;;;26.90;13.80;;;;;;;12.17;30.73;99454.52;105806;1277;138612;-73
2022/03/24 10:13:08;;;;;;;22.30;12.20;;;;;;;12.27;30.78;99456.20;105975;1277;24201;-73
2022/03/24 10:15:49;;;;;;;23.00;12.60;;;;;;;12.33;30.34;99455.50;105913;1278;25430;-73
2022/03/24 10:18:16;;;;;;;24.30;12.60;;;;;;;12.42;30.18;99446.80;106083;1278;138287;-73
2022/03/24 10:21:00;;;;;;;18.90;10.90;;;;;;;12.49;29.37;99445.35;105841;1278;22773;-73
2022/03/24 10:23:33;;;;;;;17.90;10.70;;;;;;;12.57;28.56;99443.64;105887;1279;138113;-73
2022/03/24 10:26:14;;;;;;;19.00;10.70;;;;;;;12.66;28.48;99442.73;105938;1279;22550;-73
2022/03/24 10:28:58;;;;;;;18.60;9.70;;;;;;;12.74;27.65;99440.42;105834;1279;139030;-73
2022/03/24 10:31:41;;;;;;;15.90;8.50;;;;;;;12.82;27.01;99436.80;106047;1278;22551;-74
2022/03/24 10:34:38;;;;;;;10.50;6.20;;;;;;;12.89;25.12;99436.64;105892;1278;138012;-73
2022/03/24 10:37:07;;;;;;;12.00;7.20;;;;;;;12.84;23.68;99434.96;105968;1277;22552;-73
2022/03/24 10:39:37;;;;;;;16.30;7.00;;;;;;;12.82;24.09;99439.23;105947;1277;25321;-73
2022/03/24 10:42:19;;;;;;;12.10;6.80;;;;;;;12.86;24.93;99433.55;105750;1278;138081;-73
2022/03/24 10:45:14;;;;;;;13.00;6.30;;;;;;;12.99;24.63;99429.38;106005;1278;23063;-73
2022/03/24 10:47:51;;;;;;;10.10;6.20;;;;;;;13.16;24.86;99428.74;105739;1278;138305;-73
2022/03/24 10:50:40;;;;;;;12.90;7.10;;;;;;;13.31;24.01;99429.60;105939;1278;25392;-73
2022/03/24 10:53:13;;;;;;;13.00;7.00;;;;;;;13.37;23.61;99428.61;106036;1278;137709;-73
2022/03/24 10:55:43;;;;;;;25.40;7.20;;;;;;;13.49;23.73;99421.52;105856;1278;25456;-73
2022/03/24 10:58:38;;;;;;;13.10;6.80;;;;;;;13.58;23.65;99420.73;105836;1278;138631;-73
2022/03/24 11:01:21;;;;;;;14.10;6.30;;;;;;;13.67;23.72;99420.05;106975;1278;22537;-73
2022/03/24 11:04:02;;;;;;;15.20;6.80;;;;;;;13.72;23.44;99420.53;106148;1279;345978;-72
2022/03/24 11:06:50;;;;;;;13.80;6.50;;;;;;;13.73;23.37;99415.72;106265;1279;137914;-72
2022/03/24 11:09:33;;;;;;;8.60;6.20;;;;;;;13.76;23.82;99413.13;106114;1279;22789;-72
2022/03/24 11:12:26;;;;;;;11.40;6.00;;;;;;;13.90;24.09;99409.08;106298;1279;137647;-72
2022/03/24 11:15:09;;;;;;;8.40;5.80;;;;;;;14.03;23.01;99409.02;106080;1279;22563;-72
2022/03/24 11:17:38;;;;;;;;;;;;;;;14.13;23.06;99403.66;105870;1278;138761;-72
2022/03/24 11:20:25;;;;;;;7.50;4.70;;;;;;;14.22;21.94;99403.16;106119;1277;22797;-72
2022/03/24 11:23:00;;;;;;;12.50;5.60;;;;;;;14.18;21.58;99398.33;105800;1278;138157;-71
2022/03/24 11:25:29;;;;;;;9.10;4.90;;;;;;;14.17;21.89;99398.35;106236;1279;22566;-72
2022/03/24 11:27:57;;;;;;;10.60;5.60;;;;;;;14.14;21.92;99392.89;106031;1278;22543;-72
2022/03/24 11:30:25;;;;;;;9.90;5.50;;;;;;;14.16;22.48;99390.66;105756;1278;138187;-72
2022/03/24 11:33:08;;;;;;;9.90;5.40;;;;;;;14.18;22.76;99387.20;105995;1277;25435;-72
2022/03/24 11:35:36;;;;;;;10.60;6.10;;;;;;;14.21;23.07;99381.83;105973;1277;137582;-72
2022/03/24 11:38:04;;;;;;;9.50;5.60;;;;;;;14.32;22.80;99379.55;105804;1278;22551;-73
2022/03/24 11:40:34;;;;;;;11.10;5.80;;;;;;;14.39;22.70;99378.44;105651;1279;137976;-72
2022/03/24 11:43:15;;;;;;;9.70;5.70;;;;;;;14.51;22.29;99374.03;106186;1277;25302;-72
2022/03/24 11:45:59;;;;;;;8.90;5.90;;;;;;;14.64;22.80;99370.88;106093;1277;22700;-72
2022/03/24 11:48:42;;;;;;;8.30;5.50;;;;;;;14.80;22.18;99371.39;105889;1277;137856;-72
2022/03/24 11:51:23;;;;;;;9.90;6.40;;;;;;;14.86;21.61;99375.39;105728;1280;24114;-72
2022/03/24 11:54:06;;;;;;;10.40;5.50;;;;;;;14.85;21.73;99374.98;105960;1280;137876;-72